Terminal Aerodrome Forecast
Issued by NWS

Home | Current Version | Previous Version | Text Only | Print | Product List | Glossary On
Versions: 1 2 3 4 5 6 7 8 9 10 11 12 13 14 15 16 17 18 19 20 21 22 23 24 25 26 27 28
000
FTUS45 KRIW 231700
TAFPNA
TAF
KPNA 231720Z 2318/2418 VRB06KT P6SM VCSH SCT015 BKN030
     FM231900 28015G25KT P6SM -SHRA SCT015 BKN030
     FM240100 28011KT P6SM VCSH SCT030 BKN040
     FM240600 33005KT P6SM SCT010 BKN015
     FM240900 VRB05KT 5SM BR SCT003 BKN015
     FM241500 VRB04KT P6SM SCT010 BKN030
      AMD LTD TO CLD VIS AND WIND=

USA.gov is the U.S. government's official web portal to all federal, state and local government web resources and services.